sensor_id;sensor_type;location;lat;lon;timestamp;pressure;altitude;pressure_sealevel;temperature;humidity
21869;BME280;11099;41.564;23.296;2024-02-23T00:00:29;97683.72;;;14.35;80.90
21869;BME280;11099;41.564;23.296;2024-02-23T00:03:02;97684.94;;;14.38;80.07
21869;BME280;11099;41.564;23.296;2024-02-23T01:20:36;97641.47;;;13.05;84.43
21869;BME280;11099;41.564;23.296;2024-02-23T01:41:11;97623.41;;;13.79;78.77
21869;BME280;11099;41.564;23.296;2024-02-23T01:43:41;97622.81;;;12.79;84.63
21869;BME280;11099;41.564;23.296;2024-02-23T01:48:42;97617.25;;;13.57;81.63
21869;BME280;11099;41.564;23.296;2024-02-23T03:27:26;97578.75;;;13.50;84.84
21869;BME280;11099;41.564;23.296;2024-02-23T03:30:04;97572.59;;;13.79;83.74
21869;BME280;11099;41.564;23.296;2024-02-23T05:07:48;97563.97;;;14.36;77.24
21869;BME280;11099;41.564;23.296;2024-02-23T05:10:14;97564.75;;;14.36;76.68
21869;BME280;11099;41.564;23.296;2024-02-23T05:12:42;97568.75;;;14.30;77.03
21869;BME280;11099;41.564;23.296;2024-02-23T05:15:07;97578.47;;;14.56;76.29
21869;BME280;11099;41.564;23.296;2024-02-23T05:17:34;97582.22;;;14.21;77.53
21869;BME280;11099;41.564;23.296;2024-02-23T05:20:00;97590.19;;;14.30;77.44
21869;BME280;11099;41.564;23.296;2024-02-23T05:22:25;97594.03;;;14.41;76.61
21869;BME280;11099;41.564;23.296;2024-02-23T05:24:51;97598.03;;;14.14;77.11
21869;BME280;11099;41.564;23.296;2024-02-23T05:27:17;97600.53;;;13.69;79.13
21869;BME280;11099;41.564;23.296;2024-02-23T05:29:42;97595.06;;;13.86;77.40
21869;BME280;11099;41.564;23.296;2024-02-23T05:32:08;97590.03;;;13.26;80.64
21869;BME280;11099;41.564;23.296;2024-02-23T05:34:33;97588.84;;;12.97;81.37
21869;BME280;11099;41.564;23.296;2024-02-23T05:37:00;97587.88;;;13.49;77.80
21869;BME280;11099;41.564;23.296;2024-02-23T05:39:29;97579.00;;;12.80;79.10
21869;BME280;11099;41.564;23.296;2024-02-23T05:41:56;97581.06;;;12.66;79.82
21869;BME280;11099;41.564;23.296;2024-02-23T05:44:24;97588.84;;;12.88;78.90
21869;BME280;11099;41.564;23.296;2024-02-23T05:46:49;97586.13;;;13.06;78.97
21869;BME280;11099;41.564;23.296;2024-02-23T05:49:15;97598.28;;;12.95;80.28
21869;BME280;11099;41.564;23.296;2024-02-23T05:51:40;97590.63;;;12.76;81.58
21869;BME280;11099;41.564;23.296;2024-02-23T05:54:06;97590.47;;;12.81;80.63
21869;BME280;11099;41.564;23.296;2024-02-23T05:56:31;97604.94;;;13.35;77.74
21869;BME280;11099;41.564;23.296;2024-02-23T05:58:56;97621.88;;;13.39;76.84
21869;BME280;11099;41.564;23.296;2024-02-23T06:01:22;97616.56;;;13.69;76.92
21869;BME280;11099;41.564;23.296;2024-02-23T06:03:47;97616.38;;;13.44;78.04
21869;BME280;11099;41.564;23.296;2024-02-23T06:06:13;97615.63;;;13.35;79.89
21869;BME280;11099;41.564;23.296;2024-02-23T06:08:39;97619.28;;;13.60;77.65
21869;BME280;11099;41.564;23.296;2024-02-23T06:11:04;97620.13;;;13.52;78.97
21869;BME280;11099;41.564;23.296;2024-02-23T06:13:30;97625.34;;;13.40;79.87
21869;BME280;11099;41.564;23.296;2024-02-23T06:15:56;97622.78;;;13.52;78.81
21869;BME280;11099;41.564;23.296;2024-02-23T06:18:21;97621.78;;;13.65;77.62
21869;BME280;11099;41.564;23.296;2024-02-23T06:20:47;97624.78;;;14.14;76.20
21869;BME280;11099;41.564;23.296;2024-02-23T06:23:13;97628.84;;;13.70;77.40
21869;BME280;11099;41.564;23.296;2024-02-23T06:25:38;97633.22;;;13.75;77.72
21869;BME280;11099;41.564;23.296;2024-02-23T06:28:04;97639.66;;;14.03;76.49
21869;BME280;11099;41.564;23.296;2024-02-23T06:30:30;97639.59;;;14.33;74.65
21869;BME280;11099;41.564;23.296;2024-02-23T06:32:55;97638.38;;;14.30;74.46
21869;BME280;11099;41.564;23.296;2024-02-23T06:35:20;97639.72;;;13.65;77.04
21869;BME280;11099;41.564;23.296;2024-02-23T06:37:47;97638.94;;;13.64;77.83
21869;BME280;11099;41.564;23.296;2024-02-23T06:40:12;97644.53;;;13.80;78.90
21869;BME280;11099;41.564;23.296;2024-02-23T06:42:38;97646.53;;;14.13;77.62
21869;BME280;11099;41.564;23.296;2024-02-23T06:45:03;97637.97;;;13.69;79.63
21869;BME280;11099;41.564;23.296;2024-02-23T06:47:29;97642.13;;;13.87;78.63
21869;BME280;11099;41.564;23.296;2024-02-23T06:49:54;97635.66;;;13.88;79.21
21869;BME280;11099;41.564;23.296;2024-02-23T06:52:20;97648.03;;;14.02;78.39
21869;BME280;11099;41.564;23.296;2024-02-23T06:54:45;97646.63;;;13.66;81.04
21869;BME280;11099;41.564;23.296;2024-02-23T06:57:11;97650.31;;;13.82;80.99
21869;BME280;11099;41.564;23.296;2024-02-23T06:59:36;97653.00;;;13.82;80.99
21869;BME280;11099;41.564;23.296;2024-02-23T07:02:01;97646.66;;;14.79;78.00
21869;BME280;11099;41.564;23.296;2024-02-23T07:04:27;97644.72;;;14.46;79.33
21869;BME280;11099;41.564;23.296;2024-02-23T07:06:54;97643.41;;;15.07;77.66
21869;BME280;11099;41.564;23.296;2024-02-23T07:09:20;97650.13;;;15.13;76.70
21869;BME280;11099;41.564;23.296;2024-02-23T07:11:46;97649.50;;;15.28;76.34
21869;BME280;11099;41.564;23.296;2024-02-23T07:14:12;97646.25;;;15.47;76.19
21869;BME280;11099;41.564;23.296;2024-02-23T07:16:39;97652.69;;;15.79;75.34
21869;BME280;11099;41.564;23.296;2024-02-23T07:19:05;97645.69;;;15.53;75.25
21869;BME280;11099;41.564;23.296;2024-02-23T07:24:29;97659.28;;;15.12;78.16
21869;BME280;11099;41.564;23.296;2024-02-23T07:26:54;97653.03;;;14.54;79.99
21869;BME280;11099;41.564;23.296;2024-02-23T07:29:20;97654.94;;;14.44;79.26
21869;BME280;11099;41.564;23.296;2024-02-23T07:31:45;97654.28;;;14.56;79.54
21869;BME280;11099;41.564;23.296;2024-02-23T07:34:10;97665.66;;;15.19;77.95
21869;BME280;11099;41.564;23.296;2024-02-23T07:36:36;97655.56;;;15.62;76.19
21869;BME280;11099;41.564;23.296;2024-02-23T07:39:02;97664.66;;;15.94;75.01
21869;BME280;11099;41.564;23.296;2024-02-23T07:41:28;97661.41;;;15.88;75.08
21869;BME280;11099;41.564;23.296;2024-02-23T07:43:53;97662.03;;;16.10;74.31
21869;BME280;11099;41.564;23.296;2024-02-23T07:46:19;97655.31;;;16.68;72.76
21869;BME280;11099;41.564;23.296;2024-02-23T07:48:45;97654.03;;;17.06;71.16
21869;BME280;11099;41.564;23.296;2024-02-23T07:51:13;97646.19;;;17.29;68.77
21869;BME280;11099;41.564;23.296;2024-02-23T07:53:38;97638.41;;;16.96;70.67
21869;BME280;11099;41.564;23.296;2024-02-23T07:56:04;97644.38;;;17.64;69.01
21869;BME280;11099;41.564;23.296;2024-02-23T07:58:32;97646.94;;;17.13;71.68
21869;BME280;11099;41.564;23.296;2024-02-23T08:00:57;97641.41;;;17.85;69.27
21869;BME280;11099;41.564;23.296;2024-02-23T08:03:23;97642.88;;;17.99;68.54
21869;BME280;11099;41.564;23.296;2024-02-23T08:05:48;97638.00;;;17.09;71.00
21869;BME280;11099;41.564;23.296;2024-02-23T08:08:14;97636.44;;;17.24;71.22
21869;BME280;11099;41.564;23.296;2024-02-23T08:10:40;97629.69;;;18.48;66.63
21869;BME280;11099;41.564;23.296;2024-02-23T08:13:05;97627.69;;;18.64;64.46
21869;BME280;11099;41.564;23.296;2024-02-23T08:15:31;97629.22;;;19.04;61.46
21869;BME280;11099;41.564;23.296;2024-02-23T08:17:56;97635.88;;;18.87;61.72
21869;BME280;11099;41.564;23.296;2024-02-23T08:20:22;97630.34;;;16.96;69.81
21869;BME280;11099;41.564;23.296;2024-02-23T08:22:48;97631.50;;;17.58;68.54
21869;BME280;11099;41.564;23.296;2024-02-23T08:25:13;97628.41;;;18.07;65.20
21869;BME280;11099;41.564;23.296;2024-02-23T08:27:40;97637.72;;;18.83;60.96
21869;BME280;11099;41.564;23.296;2024-02-23T08:30:06;97630.56;;;18.17;62.83
21869;BME280;11099;41.564;23.296;2024-02-23T08:32:32;97645.47;;;17.95;64.33
21869;BME280;11099;41.564;23.296;2024-02-23T08:34:57;97639.75;;;18.32;60.87
21869;BME280;11099;41.564;23.296;2024-02-23T08:37:25;97632.44;;;18.32;60.90
21869;BME280;11099;41.564;23.296;2024-02-23T08:39:50;97628.06;;;18.63;62.23
21869;BME280;11099;41.564;23.296;2024-02-23T08:42:16;97626.56;;;18.65;61.76
21869;BME280;11099;41.564;23.296;2024-02-23T08:44:41;97632.19;;;18.95;60.99
21869;BME280;11099;41.564;23.296;2024-02-23T08:47:07;97627.84;;;18.72;62.01
21869;BME280;11099;41.564;23.296;2024-02-23T08:49:35;97629.53;;;18.41;63.20
21869;BME280;11099;41.564;23.296;2024-02-23T08:52:00;97623.34;;;18.99;61.24
21869;BME280;11099;41.564;23.296;2024-02-23T08:54:27;97627.69;;;19.49;59.40
21869;BME280;11099;41.564;23.296;2024-02-23T08:56:53;97629.56;;;19.45;59.03
21869;BME280;11099;41.564;23.296;2024-02-23T08:59:18;97623.09;;;20.29;57.26
21869;BME280;11099;41.564;23.296;2024-02-23T09:01:47;97626.56;;;18.65;61.80
21869;BME280;11099;41.564;23.296;2024-02-23T09:04:13;97628.41;;;18.61;62.82
21869;BME280;11099;41.564;23.296;2024-02-23T09:06:38;97617.66;;;19.49;60.27
21869;BME280;11099;41.564;23.296;2024-02-23T09:09:04;97627.53;;;19.88;57.92
21869;BME280;11099;41.564;23.296;2024-02-23T09:11:29;97617.78;;;19.34;61.31
21869;BME280;11099;41.564;23.296;2024-02-23T09:13:55;97616.72;;;19.38;61.52
21869;BME280;11099;41.564;23.296;2024-02-23T09:16:20;97616.47;;;19.70;59.91
21869;BME280;11099;41.564;23.296;2024-02-23T09:18:48;97612.94;;;19.66;59.81
21869;BME280;11099;41.564;23.296;2024-02-23T09:21:14;97612.22;;;19.69;58.91
21869;BME280;11099;41.564;23.296;2024-02-23T09:23:39;97617.22;;;20.53;56.17
21869;BME280;11099;41.564;23.296;2024-02-23T09:26:11;97608.41;;;20.57;55.12
21869;BME280;11099;41.564;23.296;2024-02-23T09:28:37;97605.84;;;20.41;57.21
21869;BME280;11099;41.564;23.296;2024-02-23T09:31:02;97605.97;;;20.21;58.64
21869;BME280;11099;41.564;23.296;2024-02-23T09:33:30;97602.66;;;20.32;57.23
21869;BME280;11099;41.564;23.296;2024-02-23T09:35:55;97595.59;;;20.53;56.05
21869;BME280;11099;41.564;23.296;2024-02-23T09:38:21;97588.88;;;21.15;53.53
21869;BME280;11099;41.564;23.296;2024-02-23T09:40:49;97587.97;;;21.00;52.90
21869;BME280;11099;41.564;23.296;2024-02-23T09:43:15;97588.97;;;21.25;52.14
21869;BME280;11099;41.564;23.296;2024-02-23T09:45:42;97578.22;;;20.88;51.73
21869;BME280;11099;41.564;23.296;2024-02-23T09:48:07;97591.25;;;21.20;52.29
21869;BME280;11099;41.564;23.296;2024-02-23T09:50:34;97585.06;;;21.19;52.97
21869;BME280;11099;41.564;23.296;2024-02-23T09:53:01;97586.16;;;20.74;53.90
21869;BME280;11099;41.564;23.296;2024-02-23T09:55:26;97581.53;;;20.74;54.68
21869;BME280;11099;41.564;23.296;2024-02-23T09:57:54;97578.00;;;20.70;54.16
21869;BME280;11099;41.564;23.296;2024-02-23T10:00:21;97579.66;;;20.82;53.74
21869;BME280;11099;41.564;23.296;2024-02-23T10:02:57;97579.28;;;21.24;51.19
21869;BME280;11099;41.564;23.296;2024-02-23T10:05:36;97580.31;;;20.68;53.28
21869;BME280;11099;41.564;23.296;2024-02-23T10:08:03;97576.59;;;21.24;51.04
21869;BME280;11099;41.564;23.296;2024-02-23T10:10:34;97575.13;;;20.90;52.40
21869;BME280;11099;41.564;23.296;2024-02-23T10:13:03;97581.03;;;20.65;53.73
21869;BME280;11099;41.564;23.296;2024-02-23T10:15:36;97582.78;;;20.47;52.91
21869;BME280;11099;41.564;23.296;2024-02-23T10:18:25;97577.34;;;21.21;50.82
21869;BME280;11099;41.564;23.296;2024-02-23T10:20:55;97573.88;;;21.24;50.88
21869;BME280;11099;41.564;23.296;2024-02-23T10:24:05;97571.66;;;20.93;51.66
21869;BME280;11099;41.564;23.296;2024-02-23T10:26:36;97571.31;;;20.94;52.10
21869;BME280;11099;41.564;23.296;2024-02-23T10:29:03;97558.84;;;21.27;51.97
21869;BME280;11099;41.564;23.296;2024-02-23T10:31:32;97560.06;;;21.88;47.63
21869;BME280;11099;41.564;23.296;2024-02-23T10:34:35;97560.88;;;21.41;49.73
21869;BME280;11099;41.564;23.296;2024-02-23T10:42:16;97537.53;;;21.25;48.92
21869;BME280;11099;41.564;23.296;2024-02-23T10:44:46;97541.28;;;21.54;48.31
21869;BME280;11099;41.564;23.296;2024-02-23T10:47:12;97544.16;;;21.87;47.85
21869;BME280;11099;41.564;23.296;2024-02-23T10:49:38;97533.25;;;21.72;47.27
21869;BME280;11099;41.564;23.296;2024-02-23T10:52:05;97527.56;;;22.02;47.42
21869;BME280;11099;41.564;23.296;2024-02-23T10:54:47;97527.06;;;21.75;49.09
21869;BME280;11099;41.564;23.296;2024-02-23T10:57:21;97522.69;;;22.26;46.38
21869;BME280;11099;41.564;23.296;2024-02-23T11:00:02;97514.47;;;21.39;48.93
21869;BME280;11099;41.564;23.296;2024-02-23T11:02:48;97514.47;;;21.42;49.11
21869;BME280;11099;41.564;23.296;2024-02-23T11:05:19;97505.03;;;21.84;48.35
21869;BME280;11099;41.564;23.296;2024-02-23T11:07:48;97496.69;;;22.11;45.75
21869;BME280;11099;41.564;23.296;2024-02-23T11:11:06;97496.84;;;21.11;48.32
21869;BME280;11099;41.564;23.296;2024-02-23T11:13:34;97502.50;;;21.47;45.59
21869;BME280;11099;41.564;23.296;2024-02-23T11:16:03;97495.50;;;21.39;47.98
21869;BME280;11099;41.564;23.296;2024-02-23T11:18:36;97490.38;;;20.78;48.31
21869;BME280;11099;41.564;23.296;2024-02-23T11:21:02;97498.97;;;20.91;48.19
21869;BME280;11099;41.564;23.296;2024-02-23T11:23:42;97498.84;;;20.73;49.32
21869;BME280;11099;41.564;23.296;2024-02-23T11:26:12;97497.16;;;21.54;47.18
21869;BME280;11099;41.564;23.296;2024-02-23T11:28:47;97493.28;;;21.55;48.20
21869;BME280;11099;41.564;23.296;2024-02-23T11:31:16;97493.03;;;20.71;47.71
21869;BME280;11099;41.564;23.296;2024-02-23T11:33:53;97500.09;;;21.31;47.41
21869;BME280;11099;41.564;23.296;2024-02-23T11:36:52;97495.19;;;20.55;48.96
21869;BME280;11099;41.564;23.296;2024-02-23T11:39:13;97498.72;;;21.58;46.16
21869;BME280;11099;41.564;23.296;2024-02-23T11:41:43;97488.28;;;21.05;46.23
21869;BME280;11099;41.564;23.296;2024-02-23T11:50:02;97485.25;;;21.14;43.44
21869;BME280;11099;41.564;23.296;2024-02-23T11:58:05;97477.22;;;21.28;42.33
21869;BME280;11099;41.564;23.296;2024-02-23T12:00:32;97477.53;;;21.20;43.83
21869;BME280;11099;41.564;23.296;2024-02-23T12:02:58;97469.00;;;21.14;44.61
21869;BME280;11099;41.564;23.296;2024-02-23T12:05:31;97483.47;;;21.36;43.99
21869;BME280;11099;41.564;23.296;2024-02-23T12:08:01;97464.94;;;22.18;42.27
21869;BME280;11099;41.564;23.296;2024-02-23T12:13:14;97461.03;;;21.36;43.54
21869;BME280;11099;41.564;23.296;2024-02-23T12:21:48;97444.41;;;20.82;45.46
21869;BME280;11099;41.564;23.296;2024-02-23T12:26:56;97447.78;;;20.68;44.67
21869;BME280;11099;41.564;23.296;2024-02-23T12:29:31;97452.41;;;21.19;44.40
21869;BME280;11099;41.564;23.296;2024-02-23T12:35:17;97444.53;;;20.96;44.70
21869;BME280;11099;41.564;23.296;2024-02-23T12:37:54;97447.09;;;20.82;44.01
21869;BME280;11099;41.564;23.296;2024-02-23T12:40:30;97434.34;;;20.79;43.92
21869;BME280;11099;41.564;23.296;2024-02-23T12:43:03;97440.66;;;20.94;43.22
21869;BME280;11099;41.564;23.296;2024-02-23T12:45:32;97433.78;;;21.07;42.15
21869;BME280;11099;41.564;23.296;2024-02-23T12:57:25;97376.25;;;21.21;44.34
21869;BME280;11099;41.564;23.296;2024-02-23T13:00:34;97442.00;;;21.21;44.49
21869;BME280;11099;41.564;23.296;2024-02-23T13:03:09;97440.09;;;21.29;44.72
21869;BME280;11099;41.564;23.296;2024-02-23T13:11:59;97441.94;;;21.14;44.40
21869;BME280;11099;41.564;23.296;2024-02-23T13:14:27;97441.38;;;20.91;45.22
21869;BME280;11099;41.564;23.296;2024-02-23T13:16:52;97439.19;;;20.59;46.45
21869;BME280;11099;41.564;23.296;2024-02-23T13:19:20;97440.34;;;21.10;45.79
21869;BME280;11099;41.564;23.296;2024-02-23T13:21:48;97425.03;;;20.73;43.84
21869;BME280;11099;41.564;23.296;2024-02-23T13:24:16;97427.13;;;20.97;44.69
21869;BME280;11099;41.564;23.296;2024-02-23T13:26:44;97432.72;;;21.22;46.08
21869;BME280;11099;41.564;23.296;2024-02-23T13:29:17;97427.47;;;21.51;45.42
21869;BME280;11099;41.564;23.296;2024-02-23T13:31:46;97416.81;;;21.97;43.29
21869;BME280;11099;41.564;23.296;2024-02-23T13:34:29;97421.06;;;21.91;42.77
21869;BME280;11099;41.564;23.296;2024-02-23T13:37:48;97420.03;;;22.21;43.05
21869;BME280;11099;41.564;23.296;2024-02-23T13:43:00;97421.38;;;21.65;44.95
21869;BME280;11099;41.564;23.296;2024-02-23T13:48:12;97420.72;;;22.00;44.41
21869;BME280;11099;41.564;23.296;2024-02-23T13:59:57;97407.13;;;21.13;46.20
21869;BME280;11099;41.564;23.296;2024-02-23T14:02:27;97409.50;;;21.21;46.79
21869;BME280;11099;41.564;23.296;2024-02-23T14:05:11;97410.78;;;21.42;46.79
21869;BME280;11099;41.564;23.296;2024-02-23T14:07:55;97414.59;;;21.30;46.75
21869;BME280;11099;41.564;23.296;2024-02-23T14:10:22;97403.78;;;21.30;47.06
21869;BME280;11099;41.564;23.296;2024-02-23T14:12:53;97411.53;;;20.80;49.17
21869;BME280;11099;41.564;23.296;2024-02-23T14:23:33;97404.59;;;19.97;51.53
21869;BME280;11099;41.564;23.296;2024-02-23T14:26:29;97403.97;;;20.11;51.22
21869;BME280;11099;41.564;23.296;2024-02-23T14:29:24;97397.41;;;20.53;50.70
21869;BME280;11099;41.564;23.296;2024-02-23T14:31:55;97402.19;;;20.67;51.11
21869;BME280;11099;41.564;23.296;2024-02-23T14:34:26;97404.44;;;20.61;51.20
21869;BME280;11099;41.564;23.296;2024-02-23T14:40:36;97408.69;;;20.62;51.44
21869;BME280;11099;41.564;23.296;2024-02-23T14:46:21;97412.69;;;21.34;47.60
21869;BME280;11099;41.564;23.296;2024-02-23T14:57:23;97406.44;;;21.26;48.31
21869;BME280;11099;41.564;23.296;2024-02-23T15:06:19;97400.94;;;20.20;50.83
21869;BME280;11099;41.564;23.296;2024-02-23T15:09:08;97403.69;;;20.61;50.84
21869;BME280;11099;41.564;23.296;2024-02-23T15:11:45;97404.53;;;20.72;50.70
21869;BME280;11099;41.564;23.296;2024-02-23T15:14:24;97401.50;;;20.36;51.78
21869;BME280;11099;41.564;23.296;2024-02-23T15:16:52;97411.00;;;19.86;53.10
21869;BME280;11099;41.564;23.296;2024-02-23T15:19:23;97412.41;;;19.72;54.39
21869;BME280;11099;41.564;23.296;2024-02-23T15:22:10;97410.88;;;19.75;54.17
21869;BME280;11099;41.564;23.296;2024-02-23T15:24:43;97401.25;;;20.11;53.53
21869;BME280;11099;41.564;23.296;2024-02-23T15:27:18;97413.06;;;19.96;52.67
21869;BME280;11099;41.564;23.296;2024-02-23T15:29:48;97403.19;;;19.77;53.59
21869;BME280;11099;41.564;23.296;2024-02-23T15:32:31;97415.00;;;19.65;54.44
21869;BME280;11099;41.564;23.296;2024-02-23T15:37:43;97425.66;;;19.25;55.90
21869;BME280;11099;41.564;23.296;2024-02-23T15:40:27;97412.63;;;19.30;55.84
21869;BME280;11099;41.564;23.296;2024-02-23T15:42:58;97420.25;;;18.98;56.49
21869;BME280;11099;41.564;23.296;2024-02-23T15:45:45;97417.88;;;18.93;57.38
21869;BME280;11099;41.564;23.296;2024-02-23T15:48:13;97411.06;;;19.03;56.82
21869;BME280;11099;41.564;23.296;2024-02-23T15:50:42;97425.88;;;18.66;58.27
21869;BME280;11099;41.564;23.296;2024-02-23T15:53:13;97430.47;;;18.85;57.98
21869;BME280;11099;41.564;23.296;2024-02-23T15:55:44;97422.16;;;18.71;58.63
21869;BME280;11099;41.564;23.296;2024-02-23T15:58:13;97421.69;;;18.23;60.25
21869;BME280;11099;41.564;23.296;2024-02-23T16:00:43;97429.22;;;18.79;58.56
21869;BME280;11099;41.564;23.296;2024-02-23T16:03:15;97428.59;;;18.66;59.52
21869;BME280;11099;41.564;23.296;2024-02-23T16:05:56;97437.31;;;18.79;58.37
21869;BME280;11099;41.564;23.296;2024-02-23T16:08:41;97433.72;;;18.72;59.87
21869;BME280;11099;41.564;23.296;2024-02-23T16:11:10;97425.13;;;18.43;61.03
21869;BME280;11099;41.564;23.296;2024-02-23T16:13:37;97430.75;;;18.57;61.17
21869;BME280;11099;41.564;23.296;2024-02-23T16:16:07;97442.72;;;18.60;61.38
21869;BME280;11099;41.564;23.296;2024-02-23T16:18:46;97441.69;;;18.45;62.41
21869;BME280;11099;41.564;23.296;2024-02-23T16:21:14;97445.69;;;18.09;64.12
21869;BME280;11099;41.564;23.296;2024-02-23T16:23:46;97432.78;;;18.41;63.66
21869;BME280;11099;41.564;23.296;2024-02-23T16:26:43;97438.53;;;18.39;63.97
21869;BME280;11099;41.564;23.296;2024-02-23T16:29:19;97443.38;;;18.30;65.04
21869;BME280;11099;41.564;23.296;2024-02-23T16:31:50;97453.22;;;18.23;65.74
21869;BME280;11099;41.564;23.296;2024-02-23T16:40:28;97460.28;;;18.50;65.57
21869;BME280;11099;41.564;23.296;2024-02-23T16:42:55;97460.91;;;18.21;67.02
21869;BME280;11099;41.564;23.296;2024-02-23T16:45:31;97458.66;;;18.03;69.22
21869;BME280;11099;41.564;23.296;2024-02-23T16:48:01;97456.59;;;18.16;68.72
21869;BME280;11099;41.564;23.296;2024-02-23T16:53:51;97462.13;;;17.84;69.98
